Flight Track Log - Related Links

Times and Time Zones

All times are in EDT time to prevent confusion due to time zone crossing. See the FSR411 flight status page for this flight to view local times or setup timezone preferences in your user account.

Time Position Orientation Groundspeed Altitude Reporting Facility
EDT Latitude Longitude Course Direction KTS MPH feet Rate Location/Type
Wed 12:09:45 PM 29.9639 -90.2597 181° South 178 205 1,700  Level Houston Center
Wed 12:09:51 PM 29.9575 -90.2619 197° South 157 181 2,400 3,677 Climbing Houston Center
Wed 12:10:47 PM 29.9153 -90.2744 194° South 184 212 5,500 3,934 Climbing Houston Center
Wed 12:10:52 PM 29.9053 -90.2614 131° Southeast 205 236 6,400 3,290 Climbing Houston Center
Wed 12:11:49 PM 29.9250 -90.2183 62° Northeast 217 250 8,900 3,148 Climbing Houston Center
Wed 12:11:53 PM 29.9372 -90.2100 31° Northeast 241 277 9,600 3,581 Climbing Houston Center
Wed 12:12:51 PM 30.0017 -90.1658 31° Northeast 261 300 12,600 3,100 Climbing Houston Center
Wed 12:12:53 PM 30.0028 -90.1664 337° Northwest 303 349 12,700 2,032 Climbing Houston Center
Wed 12:13:53 PM 30.0922 -90.1256 22° Northeast 351 404 14,700 1,082 Climbing Houston Center
Wed 12:14:55 PM 30.1992 -90.0778 21° North 402 463 14,900 384 Climbing Houston Center
Wed 12:15:58 PM 30.3069 -90.0269 22° Northeast 412 474 15,500 1,920 Climbing Houston Center
Wed 12:17:00 PM 30.4144 -89.9617 28° Northeast 426 490 18,900 3,145 Climbing Houston Center
Wed 12:18:02 PM 30.5242 -89.8992 26° Northeast 430 495 22,000 2,274 Climbing Houston Center
Wed 12:19:04 PM 30.6381 -89.8333 26° Northeast 449 517 23,600 1,694 Climbing Houston Center
Wed 12:20:06 PM 30.7508 -89.7683 26° Northeast 451 519 25,500 1,839 Climbing Houston Center
Wed 12:21:08 PM 30.8844 -89.6906 27° Northeast 447 514 27,400 1,742 Climbing Houston Center
Wed 12:22:10 PM 30.9969 -89.6244 27° Northeast 449 517 29,100 1,488 Climbing Houston Center
Wed 12:23:13 PM 31.1125 -89.5569 27° Northeast 458 527 30,500 1,344 Climbing Houston Center
Wed 12:24:15 PM 31.2317 -89.4883 26° Northeast 471 542 31,900 1,452 Climbing Houston Center
Wed 12:25:17 PM 31.3608 -89.4103 27° Northeast 473 544 33,500 1,548 Climbing Houston Center
Wed 12:26:19 PM 31.4819 -89.3403 26° Northeast 477 549 35,100 1,452 Climbing Houston Center
Wed 12:27:21 PM 31.5975 -89.2722 27° Northeast 472 543 36,500 919 Climbing Houston Center
Wed 12:28:23 PM 31.7139 -89.2186 21° North 453 521 37,000 242 Climbing Houston Center
Wed 12:29:25 PM 31.8372 -89.2033 North 441 507 37,000  Level Houston Center
Wed 12:29:58 PM 31.9086 -89.1950 North 443 510 37,000 129 Level Memphis Center
Wed 12:30:58 PM 32.0275 -89.1836 North 432 497 37,200 650 Climbing Memphis Center
Wed 12:31:58 PM 32.1444 -89.1722 North 426 490 38,300 1,150 Climbing Memphis Center
Wed 12:32:58 PM 32.2611 -89.1608 North 421 484 39,500 1,200 Climbing Memphis Center
Wed 12:33:58 PM 32.3883 -89.1469 North 421 484 40,700 750 Climbing Memphis Center
Wed 12:34:58 PM 32.5031 -89.1356 North 421 484 41,000 150 Climbing Memphis Center
Wed 12:35:58 PM 32.6219 -89.1239 North 421 484 41,000  Level Memphis Center
Wed 12:36:58 PM 32.7386 -89.1125 North 421 484 41,000  Level Memphis Center
Wed 12:37:58 PM 32.8533 -89.0986 North 421 484 41,000  Level Memphis Center
Wed 12:38:58 PM 32.9722 -89.0894 North 421 484 41,000  Level Memphis Center
Wed 12:39:58 PM 33.0869 -89.0753 North 421 484 41,000  Level Memphis Center
Wed 12:40:58 PM 33.2036 -89.0636 North 421 484 41,000  Level Memphis Center
Wed 12:41:58 PM 33.3206 -89.0519 North 421 484 41,000  Level Memphis Center
Wed 12:42:58 PM 33.4394 -89.0403 North 421 484 41,000  Level Memphis Center
Wed 12:43:58 PM 33.5456 -89.0286 North 429 494 41,000  Level Memphis Center
Wed 12:44:58 PM 33.6603 -89.0194 North 429 494 41,000  Level Memphis Center
Wed 12:45:58 PM 33.7792 -89.0053 North 424 488 41,000  Level Memphis Center
Wed 12:46:58 PM 33.9064 -88.9881 North 417 480 41,000  Level Memphis Center
Wed 12:47:58 PM 34.0231 -88.9739 North 424 488 41,000  Level Memphis Center
Wed 12:48:58 PM 34.1378 -88.9619 North 419 482 41,000  Level Memphis Center
Wed 12:49:58 PM 34.2564 -88.9475 North 419 482 41,000  Level Memphis Center
Wed 12:50:58 PM 34.3711 -88.9353 North 424 488 41,000  Level Memphis Center
Wed 12:51:58 PM 34.4878 -88.9208 North 419 482 41,000  Level Memphis Center
Wed 12:52:58 PM 34.6044 -88.9089 North 419 482 41,000  Level Memphis Center
Wed 12:53:58 PM 34.7192 -88.8967 North 419 482 41,000  Level Memphis Center
Wed 12:54:58 PM 34.8358 -88.8819 North 419 482 41,000  Level Memphis Center
Wed 12:55:58 PM 34.9544 -88.8697 North 419 482 41,000  Level Memphis Center
Wed 12:56:58 PM 35.0567 -88.8603 North 419 482 41,000  Level Memphis Center
Wed 12:57:58 PM 35.1753 -88.8456 North 424 488 41,000  Level Memphis Center
Wed 12:58:59 PM 35.2900 -88.8333 North 417 480 41,000  Level Memphis Center
Wed 12:59:58 PM 35.4086 -88.8208 North 417 480 41,000  Level Memphis Center
Wed 01:00:58 PM 35.5233 -88.8111 North 422 486 41,000  Level Memphis Center
Wed 01:01:58 PM 35.6378 -88.7961 North 416 479 41,000  Level Memphis Center
Wed 01:02:58 PM 35.7525 -88.7839 North 416 479 41,000  Level Memphis Center
Wed 01:03:58 PM 35.8689 -88.7714 North 416 479 41,000  Level Memphis Center
Wed 01:04:58 PM 35.9856 -88.7564 North 416 479 41,000  Level Memphis Center
Wed 01:05:58 PM 36.1022 -88.7436 North 416 479 41,000  Level Memphis Center
Wed 01:06:58 PM 36.2208 -88.7286 North 421 484 41,000  Level Memphis Center
Wed 01:07:58 PM 36.3375 -88.7158 North 421 484 41,000  Level Memphis Center
Wed 01:08:58 PM 36.4539 -88.7058 North 421 484 41,000  Level Memphis Center
Wed 01:09:58 PM 36.5725 -88.6903 North 421 484 41,000  Level Memphis Center
Wed 01:10:58 PM 36.6892 -88.6803 North 421 484 41,000  Level Memphis Center
Wed 01:11:58 PM 36.8078 -88.6675 North 421 484 41,000  Level Memphis Center
Wed 01:12:58 PM 36.9264 -88.6544 North 421 484 41,000  Level Memphis Center
Wed 01:13:58 PM 37.0428 -88.6389 North 421 484 41,000  Level Memphis Center
Wed 01:14:58 PM 37.1614 -88.6261 North 421 484 41,000  Level Memphis Center
Wed 01:16:43 PM 37.3706 -88.5994 North 429 494 41,000  Level Kansas City Center
Wed 01:17:45 PM 37.4897 -88.5861 North 429 494 41,000  Level Kansas City Center
Wed 01:18:47 PM 37.6047 -88.5728 North 430 495 41,000  Level Kansas City Center
Wed 01:19:49 PM 37.7497 -88.5558 North 432 497 41,000 -484 Level Kansas City Center
Wed 01:20:51 PM 37.8686 -88.5414 North 428 493 40,000 -1,161 Descending Kansas City Center
Wed 01:21:53 PM 37.9875 -88.5264 North 427 491 38,600 -1,500 Descending Kansas City Center
Wed 01:22:55 PM 38.1100 -88.5139 North 433 498 36,900 -1,452 Descending Kansas City Center
Wed 01:23:57 PM 38.2317 -88.4992 North 436 502 35,600 -1,008 Descending Kansas City Center
Wed 01:25:00 PM 38.3519 -88.4850 North 434 499 34,800 -1,536 Descending Kansas City Center
Wed 01:26:02 PM 38.4728 -88.4703 North 433 498 32,400 -2,468 Descending Kansas City Center
Wed 01:27:04 PM 38.5967 -88.4550 North 437 503 29,700 -2,952 Descending Kansas City Center
Wed 01:28:06 PM 38.7500 -88.4367 North 448 516 26,300 -2,710 Descending Kansas City Center
Wed 01:29:08 PM 38.8694 -88.4214 North 441 507 24,100 -2,468 Descending Kansas City Center
Wed 01:30:10 PM 38.9853 -88.4075 North 424 488 21,200 -2,855 Descending Kansas City Center
Wed 01:31:12 PM 39.1083 -88.3928 North 431 496 18,200 -2,855 Descending Kansas City Center
Wed 01:32:14 PM 39.2264 -88.3772 North 429 494 15,300 -2,565 Descending Kansas City Center
Wed 01:33:16 PM 39.3372 -88.3619 North 418 481 12,900 -1,935 Descending Kansas City Center
Wed 01:34:18 PM 39.4364 -88.3486 North 382 440 11,300 -919 Descending Kansas City Center
Wed 01:35:20 PM 39.5492 -88.3381 North 349 402 11,000 -774 Descending Kansas City Center
Wed 01:36:22 PM 39.6342 -88.3594 349° North 323 372 9,700 -1,355 Descending Kansas City Center
Wed 01:37:24 PM 39.7014 -88.3922 339° North 294 338 8,200 -1,500 Descending Kansas City Center
Wed 01:38:26 PM 39.7783 -88.4194 345° North 287 330 6,600 -1,645 Descending Kansas City Center
Wed 01:39:28 PM 39.8722 -88.4503 346° North 288 331 4,800 -1,500 Descending Kansas City Center
Wed 01:40:18 PM 39.9314 -88.4744 343° North 283 326 3,800 -964 Descending Chicago Center
Wed 01:41:20 PM 40.0056 -88.4989 346° North 281 323 3,000 -387 Descending Chicago Center
Wed 01:42:22 PM 40.0731 -88.5233 345° North 270 311 3,000  Level Chicago Center
Wed 01:43:24 PM 40.1278 -88.5347 351° North 239 275 3,000  Level Chicago Center
Wed 01:44:26 PM 40.1736 -88.4864 39° Northeast 220 253 3,000  Level Chicago Center
Wed 01:45:28 PM 40.1525 -88.4206 113° Southeast 211 243 3,000  Level Chicago Center
Wed 01:46:30 PM 40.1206 -88.3747 132° Southeast 203 234 3,000  Level Chicago Center

Login

Don't have an account? Register now (free) for customized features, flight alerts, and more!